Time;durP1;ratioP1;P1;durP2;ratioP2;P2;SDS_P1;SDS_P2;PMS_P1;PMS_P2;Temp;Humidity;BMP_temperature;BMP_pressure;BME280_temperature;BME280_humidity;BME280_pressure;Samples;Min_cycle;Max_cycle;Signal;HPM_P1;HPM_P2
2021/12/06 00:01:44;;;;;;;7.70;6.93;;;4.00;99.90;;;;;;5055861;28;20859;-61
2021/12/06 00:04:17;;;;;;;8.50;6.05;;;4.00;99.90;;;;;;5058731;28;20286;-63
2021/12/06 00:06:49;;;;;;;7.60;7.00;;;4.00;99.90;;;;;;5049019;28;20241;-63
2021/12/06 00:09:21;;;;;;;9.40;8.57;;;4.00;99.90;;;;;;5063157;28;20302;-62
2021/12/06 00:11:51;;;;;;;9.00;7.65;;;4.00;99.90;;;;;;5059596;28;20287;-63
2021/12/06 00:14:19;;;;;;;8.55;7.85;;;4.00;99.90;;;;;;5061375;28;20274;-62
2021/12/06 00:16:47;;;;;;;7.05;6.45;;;4.00;99.90;;;;;;5053673;28;20231;-63
2021/12/06 00:19:15;;;;;;;6.72;6.13;;;4.00;99.90;;;;;;5051184;28;20220;-63
2021/12/06 00:21:42;;;;;;;9.05;6.50;;;3.90;99.90;;;;;;5062141;28;20298;-62
2021/12/06 00:24:12;;;;;;;6.72;6.10;;;3.90;99.90;;;;;;5063686;28;20649;-62
2021/12/06 00:26:40;;;;;;;6.70;6.15;;;3.90;99.90;;;;;;5058989;28;20232;-63
2021/12/06 00:29:09;;;;;;;6.30;5.68;;;3.80;99.90;;;;;;5047105;28;20251;-63
2021/12/06 00:31:38;;;;;;;6.53;5.93;;;3.80;99.90;;;;;;5052162;28;20674;-62
2021/12/06 00:34:11;;;;;;;6.85;5.60;;;3.80;99.90;;;;;;5051949;28;20246;-62
2021/12/06 00:36:43;;;;;;;6.40;5.82;;;3.80;99.90;;;;;;5052075;28;20199;-61
2021/12/06 00:39:13;;;;;;;7.60;6.90;;;3.70;99.90;;;;;;5051695;28;20298;-62
2021/12/06 00:41:43;;;;;;;8.70;7.82;;;3.60;99.90;;;;;;5052013;28;20242;-61
2021/12/06 00:44:11;;;;;;;8.20;7.40;;;3.50;99.90;;;;;;5051908;28;20236;-62
2021/12/06 00:46:40;;;;;;;8.38;7.57;;;3.40;99.90;;;;;;5051902;28;20197;-62
2021/12/06 00:49:10;;;;;;;8.73;7.80;;;3.40;99.90;;;;;;5051711;28;20235;-63
2021/12/06 00:51:40;;;;;;;8.60;7.68;;;3.40;99.90;;;;;;5051931;28;20249;-62
2021/12/06 00:54:09;;;;;;;7.07;6.38;;;3.40;99.90;;;;;;5051109;28;20227;-62
2021/12/06 00:56:39;;;;;;;7.82;7.13;;;3.40;99.90;;;;;;5062226;28;20203;-63
2021/12/06 00:59:08;;;;;;;8.63;6.40;;;3.40;99.90;;;;;;5077218;22;20258;-70
2021/12/06 01:01:36;;;;;;;6.07;5.53;;;3.40;99.90;;;;;;5031203;28;20255;-70
2021/12/06 01:04:06;;;;;;;6.57;5.85;;;3.20;99.90;;;;;;5031906;28;20283;-70
2021/12/06 01:06:33;;;;;;;4.85;4.45;;;3.10;99.90;;;;;;5018742;28;20252;-70
2021/12/06 01:09:02;;;;;;;6.68;6.07;;;3.00;99.90;;;;;;5012037;28;20560;-70
2021/12/06 01:11:30;;;;;;;6.43;5.85;;;3.00;99.90;;;;;;5026252;28;20189;-69
2021/12/06 01:13:59;;;;;;;5.70;5.20;;;2.90;99.90;;;;;;5032128;28;20734;-69
2021/12/06 01:16:29;;;;;;;6.20;5.70;;;2.90;99.90;;;;;;5031734;28;20239;-70
2021/12/06 01:18:57;;;;;;;6.00;5.50;;;2.80;99.90;;;;;;5031319;28;20279;-70
2021/12/06 01:21:32;;;;;;;6.53;5.90;;;2.70;99.90;;;;;;5031931;28;20654;-69
2021/12/06 01:24:01;;;;;;;6.40;5.88;;;2.60;99.90;;;;;;5031989;28;20192;-70
2021/12/06 01:26:55;;;;;;;7.80;7.18;;;2.60;99.90;;;;;;5036451;28;20196;-69
2021/12/06 01:29:44;;;;;;;6.75;6.25;;;2.50;99.90;;;;;;5026732;28;20228;-69
2021/12/06 01:32:23;;;;;;;6.10;5.60;;;2.50;99.90;;;;;;5016409;28;20209;-68
2021/12/06 01:40:22;;;;;;;6.72;6.22;;;2.50;99.90;;;;;;5031297;28;20270;-68
2021/12/06 01:42:50;;;;;;;6.55;6.00;;;2.40;99.90;;;;;;5031184;28;20256;-69
2021/12/06 01:45:20;;;;;;;7.30;6.50;;;2.40;99.90;;;;;;5029707;28;20669;-69
2021/12/06 01:47:48;;;;;;;7.60;7.10;;;2.40;99.90;;;;;;5029897;28;20688;-69
2021/12/06 01:50:18;;;;;;;6.47;5.88;;;2.50;99.90;;;;;;5018600;28;20268;-69
2021/12/06 01:52:48;;;;;;;6.78;6.18;;;2.60;99.90;;;;;;5026034;28;20271;-69
2021/12/06 01:55:18;;;;;;;5.82;5.43;;;2.50;99.90;;;;;;5021964;28;20216;-69
2021/12/06 01:57:47;;;;;;;6.10;5.50;;;2.60;99.90;;;;;;5032567;28;20200;-70
2021/12/06 02:00:20;;;;;;;6.40;5.53;;;2.60;99.90;;;;;;5029952;28;20260;-69
2021/12/06 02:02:50;;;;;;;5.93;5.35;;;2.70;99.90;;;;;;5021814;28;20240;-69
2021/12/06 02:05:18;;;;;;;6.10;5.60;;;2.60;99.90;;;;;;5030956;28;20200;-69
2021/12/06 02:07:46;;;;;;;6.32;5.78;;;2.60;99.90;;;;;;5033115;28;20223;-69
2021/12/06 02:10:14;;;;;;;5.47;5.03;;;2.60;99.90;;;;;;5035994;28;20260;-69
2021/12/06 02:12:44;;;;;;;5.35;4.90;;;2.60;99.90;;;;;;5026260;28;20201;-68
2021/12/06 02:15:26;;;;;;;5.30;4.80;;;2.60;99.90;;;;;;5030594;28;20208;-69
2021/12/06 02:18:04;;;;;;;4.50;4.20;;;2.60;99.90;;;;;;5030445;28;20543;-69
2021/12/06 02:20:36;;;;;;;5.28;4.88;;;2.60;99.90;;;;;;5026474;28;20252;-68
2021/12/06 02:23:06;;;;;;;5.57;4.80;;;2.60;99.90;;;;;;5025928;28;20631;-69
2021/12/06 02:25:34;;;;;;;5.40;4.90;;;2.60;99.90;;;;;;5033500;28;20201;-69
2021/12/06 02:28:02;;;;;;;5.72;5.32;;;2.60;99.90;;;;;;5044695;28;20215;-70
2021/12/06 02:30:30;;;;;;;5.20;4.80;;;2.70;99.90;;;;;;5028644;28;20253;-70
2021/12/06 02:32:58;;;;;;;5.05;4.65;;;2.70;99.90;;;;;;5032988;28;20280;-69
2021/12/06 02:35:27;;;;;;;4.82;4.43;;;2.80;99.90;;;;;;5034118;28;20228;-69
2021/12/06 02:37:55;;;;;;;5.03;4.65;;;2.80;99.90;;;;;;5024497;28;20224;-69
2021/12/06 02:40:27;;;;;;;5.57;5.07;;;2.80;99.90;;;;;;5033444;28;20224;-69
2021/12/06 02:42:56;;;;;;;4.15;3.85;;;2.70;99.90;;;;;;5033697;28;20271;-69
2021/12/06 02:45:26;;;;;;;4.75;4.25;;;2.70;99.90;;;;;;5024419;28;20296;-68
2021/12/06 02:47:56;;;;;;;3.63;3.33;;;2.80;99.90;;;;;;5025628;28;20192;-69
2021/12/06 02:50:27;;;;;;;4.10;3.80;;;2.80;99.90;;;;;;5022148;28;20308;-70
2021/12/06 02:52:55;;;;;;;4.00;3.70;;;2.80;99.90;;;;;;5033245;28;20197;-69
2021/12/06 02:55:31;;;;;;;4.32;3.90;;;2.90;99.90;;;;;;5034335;28;20196;-69
2021/12/06 02:58:13;;;;;;;4.90;4.32;;;2.90;99.90;;;;;;5031020;28;20205;-69
2021/12/06 03:00:43;;;;;;;4.40;4.10;;;2.90;99.90;;;;;;5033880;28;20327;-70
2021/12/06 03:03:11;;;;;;;4.97;3.72;;;2.90;99.90;;;;;;5046836;28;20223;-70
2021/12/06 03:05:40;;;;;;;4.18;3.90;;;2.90;99.90;;;;;;5053710;28;20276;-69
2021/12/06 03:08:08;;;;;;;4.10;3.80;;;2.80;99.90;;;;;;5053410;28;20806;-70
2021/12/06 03:10:38;;;;;;;4.75;4.35;;;2.90;99.90;;;;;;5053705;28;20319;-70
2021/12/06 03:13:06;;;;;;;4.28;3.95;;;2.90;99.90;;;;;;5053939;28;20224;-69
2021/12/06 03:15:34;;;;;;;4.20;3.80;;;2.80;99.90;;;;;;5034879;28;20223;-69
2021/12/06 03:18:02;;;;;;;3.65;3.35;;;2.80;99.90;;;;;;5039554;28;20226;-68
2021/12/06 03:20:30;;;;;;;4.40;4.10;;;2.80;99.90;;;;;;5053822;28;20253;-69
2021/12/06 03:22:58;;;;;;;3.60;3.40;;;2.90;99.90;;;;;;5053410;28;20872;-70
2021/12/06 03:25:26;;;;;;;4.05;3.65;;;2.90;99.90;;;;;;5046039;28;20254;-69
2021/12/06 03:27:55;;;;;;;3.15;2.95;;;2.90;99.90;;;;;;5045044;28;20238;-70
2021/12/06 03:30:23;;;;;;;3.65;3.45;;;2.90;99.90;;;;;;5053478;28;20247;-69
2021/12/06 03:32:51;;;;;;;4.20;3.88;;;2.80;99.90;;;;;;5037409;28;20280;-69
2021/12/06 03:35:19;;;;;;;3.95;3.35;;;2.90;99.90;;;;;;5033236;28;20236;-68
2021/12/06 03:37:47;;;;;;;3.63;3.33;;;2.90;99.90;;;;;;5033357;28;20228;-69
2021/12/06 03:40:15;;;;;;;6.45;4.68;;;2.90;99.90;;;;;;5025188;28;20300;-69
2021/12/06 03:42:43;;;;;;;4.45;4.15;;;3.00;99.90;;;;;;5033148;28;20739;-69
2021/12/06 03:45:13;;;;;;;6.00;4.45;;;3.00;99.90;;;;;;5033265;28;20215;-69
2021/12/06 03:47:41;;;;;;;4.28;3.90;;;3.00;99.90;;;;;;5032479;28;20609;-69
2021/12/06 03:50:12;;;;;;;4.65;4.25;;;2.90;99.90;;;;;;5033346;28;20588;-70
2021/12/06 03:52:40;;;;;;;4.43;4.07;;;2.80;99.90;;;;;;5052769;28;20253;-70
2021/12/06 03:55:10;;;;;;;6.22;4.13;;;2.90;99.90;;;;;;5046379;28;20205;-70
2021/12/06 03:57:38;;;;;;;4.70;4.20;;;3.00;99.90;;;;;;5029960;28;20681;-70
2021/12/06 04:00:08;;;;;;;3.97;3.65;;;3.00;99.90;;;;;;5029722;28;20275;-68
2021/12/06 04:02:39;;;;;;;4.07;3.78;;;3.10;99.90;;;;;;5029250;28;20853;-69
2021/12/06 04:05:08;;;;;;;4.35;4.05;;;3.10;99.90;;;;;;5031926;28;20212;-70
2021/12/06 04:07:36;;;;;;;3.70;3.50;;;3.20;99.90;;;;;;5031486;28;20204;-69
2021/12/06 04:10:05;;;;;;;4.22;3.90;;;3.20;99.90;;;;;;5025768;28;20229;-69
2021/12/06 04:12:33;;;;;;;4.72;4.30;;;3.20;99.90;;;;;;5027945;28;20228;-69
2021/12/06 04:15:01;;;;;;;3.80;3.50;;;3.30;99.90;;;;;;5026574;28;20197;-69
2021/12/06 04:17:29;;;;;;;4.00;3.70;;;3.30;99.90;;;;;;5020645;28;20606;-70
2021/12/06 04:19:58;;;;;;;3.40;3.20;;;3.30;99.90;;;;;;5032446;28;20259;-70
2021/12/06 04:22:26;;;;;;;4.20;3.90;;;3.30;99.90;;;;;;5041355;28;20790;-70
2021/12/06 04:24:54;;;;;;;4.10;3.80;;;3.30;99.90;;;;;;5040569;28;20247;-69
2021/12/06 04:27:25;;;;;;;4.20;3.90;;;3.30;99.90;;;;;;5040375;28;20204;-69
2021/12/06 04:29:53;;;;;;;4.38;3.97;;;3.40;99.90;;;;;;5044196;28;20266;-69
2021/12/06 04:32:22;;;;;;;3.55;3.30;;;3.40;99.90;;;;;;5052313;28;20230;-69
2021/12/06 04:34:50;;;;;;;3.97;3.65;;;3.40;99.90;;;;;;5041167;28;20231;-69
2021/12/06 04:37:19;;;;;;;3.92;3.35;;;3.40;99.90;;;;;;5019208;28;20228;-69
2021/12/06 04:39:47;;;;;;;3.90;3.50;;;3.40;99.90;;;;;;5031681;28;20235;-69
2021/12/06 04:42:18;;;;;;;3.70;3.40;;;3.40;99.90;;;;;;5032222;28;20288;-69
2021/12/06 04:44:46;;;;;;;5.47;3.40;;;3.40;99.90;;;;;;5032332;28;20243;-70
2021/12/06 04:47:14;;;;;;;3.88;3.58;;;3.40;99.90;;;;;;5031628;28;20235;-69
2021/12/06 04:49:42;;;;;;;3.50;3.30;;;3.50;99.90;;;;;;5032377;28;20246;-69
2021/12/06 04:52:13;;;;;;;3.70;3.40;;;3.40;99.90;;;;;;5031981;28;20284;-69
2021/12/06 04:54:47;;;;;;;4.13;3.83;;;3.50;99.90;;;;;;5031305;28;20703;-70
2021/12/06 04:57:18;;;;;;;3.90;3.50;;;3.50;99.90;;;;;;5039237;28;20262;-69
2021/12/06 04:59:49;;;;;;;3.80;3.50;;;3.40;99.90;;;;;;5035607;28;20263;-69
2021/12/06 05:02:22;;;;;;;3.03;2.85;;;3.30;99.90;;;;;;5051786;28;20231;-69
2021/12/06 05:04:53;;;;;;;3.85;3.50;;;3.30;99.90;;;;;;5051652;28;20199;-69
2021/12/06 05:07:26;;;;;;;3.92;3.63;;;3.30;99.90;;;;;;5051372;28;20222;-69
2021/12/06 05:09:56;;;;;;;4.25;3.80;;;3.30;99.90;;;;;;5034519;28;20255;-69
2021/12/06 05:12:27;;;;;;;5.07;4.35;;;3.30;99.90;;;;;;5051109;28;20616;-69
2021/12/06 05:14:55;;;;;;;3.55;3.35;;;3.40;99.90;;;;;;5051514;28;20619;-68
2021/12/06 05:17:24;;;;;;;3.65;3.38;;;3.40;99.90;;;;;;5031457;28;20246;-69
2021/12/06 05:19:52;;;;;;;3.60;3.30;;;3.30;99.90;;;;;;5025950;28;20217;-70
2021/12/06 05:22:20;;;;;;;3.97;3.67;;;3.30;99.90;;;;;;5031738;28;20204;-69
2021/12/06 05:24:48;;;;;;;3.58;3.22;;;3.30;99.90;;;;;;5031184;28;20308;-70
2021/12/06 05:27:23;;;;;;;4.45;3.80;;;3.30;99.90;;;;;;5036504;28;20242;-69
2021/12/06 05:29:56;;;;;;;4.22;3.83;;;3.40;99.90;;;;;;5036640;28;20612;-70
2021/12/06 05:32:25;;;;;;;3.72;3.47;;;3.40;99.90;;;;;;5051530;28;20253;-70
2021/12/06 05:35:01;;;;;;;4.00;3.70;;;3.50;99.90;;;;;;5051337;28;20283;-70
2021/12/06 05:37:29;;;;;;;3.80;3.60;;;3.50;99.90;;;;;;5011353;28;20197;-69
2021/12/06 05:39:57;;;;;;;3.47;3.20;;;3.60;99.90;;;;;;5024609;28;20217;-70
2021/12/06 05:42:27;;;;;;;3.97;3.63;;;3.60;99.90;;;;;;5028990;28;20197;-68
2021/12/06 05:44:55;;;;;;;4.60;4.20;;;3.60;99.90;;;;;;5022332;28;20660;-70
2021/12/06 05:47:23;;;;;;;4.22;3.92;;;3.60;99.90;;;;;;5025002;28;20216;-68
2021/12/06 05:49:51;;;;;;;3.67;3.42;;;3.70;99.90;;;;;;5027779;28;20267;-69
2021/12/06 05:52:19;;;;;;;3.75;3.53;;;3.70;99.90;;;;;;5030582;28;20233;-69
2021/12/06 05:54:47;;;;;;;4.40;4.10;;;3.60;99.90;;;;;;5025554;28;20197;-69
2021/12/06 05:57:16;;;;;;;4.00;3.65;;;3.70;99.90;;;;;;5038434;28;20236;-70
2021/12/06 05:59:46;;;;;;;3.63;3.42;;;3.70;99.90;;;;;;5029748;28;20634;-70
2021/12/06 06:02:14;;;;;;;4.43;4.10;;;3.70;99.90;;;;;;5022945;28;20213;-68
2021/12/06 06:04:43;;;;;;;5.18;4.88;;;3.70;99.90;;;;;;5030611;28;20274;-69
2021/12/06 06:07:11;;;;;;;4.80;4.43;;;3.70;99.90;;;;;;5022270;28;20694;-69
2021/12/06 06:09:39;;;;;;;5.47;5.05;;;3.70;99.90;;;;;;5028663;28;20728;-70
2021/12/06 06:12:08;;;;;;;5.47;4.97;;;3.50;99.90;;;;;;5026260;28;20657;-69
2021/12/06 06:14:36;;;;;;;5.25;4.70;;;3.50;99.90;;;;;;5037835;28;20197;-69
2021/12/06 06:17:10;;;;;;;5.40;4.93;;;3.50;99.90;;;;;;5023141;28;20229;-68
2021/12/06 06:19:44;;;;;;;5.30;4.90;;;3.50;99.90;;;;;;5026164;28;20223;-70
2021/12/06 06:22:13;;;;;;;8.27;4.82;;;3.60;99.90;;;;;;5023267;28;20236;-70
2021/12/06 06:24:41;;;;;;;4.40;4.00;;;3.60;99.90;;;;;;5041937;28;20730;-69
2021/12/06 06:27:09;;;;;;;4.68;4.28;;;3.60;99.90;;;;;;5015274;28;20252;-69
2021/12/06 06:29:37;;;;;;;5.25;4.75;;;3.60;99.90;;;;;;5037088;28;20256;-69
2021/12/06 06:32:08;;;;;;;5.15;4.72;;;3.60;99.90;;;;;;5030870;28;21027;-69
2021/12/06 06:34:35;;;;;;;4.65;4.20;;;3.60;99.90;;;;;;5033831;28;20293;-69
2021/12/06 06:37:04;;;;;;;4.32;4.03;;;3.70;99.90;;;;;;5035892;28;20266;-68
2021/12/06 06:39:32;;;;;;;4.70;4.30;;;3.70;99.90;;;;;;5029359;28;20281;-69
2021/12/06 06:42:00;;;;;;;5.47;4.95;;;3.70;99.90;;;;;;5024386;28;20957;-68
2021/12/06 06:44:28;;;;;;;5.32;4.82;;;3.70;99.90;;;;;;5032863;28;20279;-69
2021/12/06 06:46:56;;;;;;;6.20;5.70;;;3.80;99.90;;;;;;5015440;28;20284;-68
2021/12/06 06:49:25;;;;;;;6.50;5.90;;;3.70;99.90;;;;;;5023734;28;20224;-69
2021/12/06 06:51:53;;;;;;;5.70;5.22;;;3.80;99.90;;;;;;5021507;28;20635;-69
2021/12/06 06:54:21;;;;;;;5.80;5.40;;;3.80;99.90;;;;;;5029287;28;20223;-69
2021/12/06 06:56:49;;;;;;;6.28;5.72;;;3.80;99.90;;;;;;5024847;28;20682;-69
2021/12/06 06:59:17;;;;;;;5.60;5.10;;;3.80;99.90;;;;;;5025665;28;20745;-70
2021/12/06 07:01:45;;;;;;;5.85;5.45;;;3.80;99.90;;;;;;5030455;28;20640;-69
2021/12/06 07:04:13;;;;;;;6.00;5.15;;;3.90;99.90;;;;;;5033969;28;20231;-68
2021/12/06 07:06:44;;;;;;;7.18;6.47;;;3.80;99.90;;;;;;5033720;28;20857;-69
2021/12/06 07:09:12;;;;;;;7.00;6.40;;;3.80;99.90;;;;;;5067787;22;20238;-64
2021/12/06 07:11:44;;;;;;;6.07;5.68;;;3.80;99.90;;;;;;5090290;28;20279;-64
2021/12/06 07:14:12;;;;;;;7.70;7.00;;;3.80;99.90;;;;;;5098449;28;20282;-64
2021/12/06 07:16:40;;;;;;;7.72;7.03;;;3.80;99.90;;;;;;5092412;28;20290;-64
2021/12/06 07:19:09;;;;;;;7.53;6.93;;;3.70;99.90;;;;;;5096635;28;20636;-65
2021/12/06 07:21:57;;;;;;;8.88;7.97;;;3.60;99.90;;;;;;5097901;28;20592;-64
2021/12/06 07:24:25;;;;;;;8.80;8.10;;;3.60;99.90;;;;;;5092606;28;20953;-63
2021/12/06 07:26:54;;;;;;;10.55;9.65;;;3.60;99.90;;;;;;5091186;28;20222;-64
2021/12/06 07:29:22;;;;;;;9.93;9.02;;;3.60;99.90;;;;;;5091998;28;20687;-63
2021/12/06 07:31:50;;;;;;;11.25;10.35;;;3.60;99.90;;;;;;5092441;28;20673;-61
2021/12/06 07:34:18;;;;;;;12.60;11.55;;;3.50;99.90;;;;;;5085534;28;20226;-61
2021/12/06 07:36:46;;;;;;;12.77;11.77;;;3.50;99.90;;;;;;5093483;28;20226;-64
2021/12/06 07:39:15;;;;;;;12.40;11.43;;;3.50;99.90;;;;;;5093348;28;20642;-64
2021/12/06 07:41:43;;;;;;;12.25;11.05;;;3.40;99.90;;;;;;5093451;28;20251;-64
2021/12/06 07:44:11;;;;;;;11.50;10.40;;;3.50;99.90;;;;;;5093545;28;20249;-60
2021/12/06 07:46:39;;;;;;;12.20;11.20;;;3.40;99.90;;;;;;5092884;28;20268;-63
2021/12/06 07:49:07;;;;;;;11.23;10.13;;;3.30;99.90;;;;;;5093058;28;20220;-64
2021/12/06 07:51:35;;;;;;;13.02;11.68;;;3.40;99.90;;;;;;5093439;28;20199;-63
2021/12/06 07:54:03;;;;;;;12.93;11.77;;;3.40;99.90;;;;;;5093341;28;20237;-64
2021/12/06 07:56:32;;;;;;;12.02;11.02;;;3.40;99.90;;;;;;5093094;28;20323;-64
2021/12/06 07:59:00;;;;;;;11.88;10.50;;;3.40;99.90;;;;;;5092850;28;20245;-63
2021/12/06 08:01:28;;;;;;;11.70;10.70;;;3.50;99.90;;;;;;5092576;28;20247;-64
2021/12/06 08:03:58;;;;;;;11.80;10.80;;;3.50;99.90;;;;;;5093169;28;20195;-63
2021/12/06 08:06:26;;;;;;;12.10;10.70;;;3.50;99.90;;;;;;5093125;28;20224;-63
2021/12/06 08:08:54;;;;;;;11.95;10.80;;;3.60;99.90;;;;;;5092484;28;20764;-63
2021/12/06 08:11:23;;;;;;;12.20;11.20;;;3.70;99.90;;;;;;5092966;28;20659;-63
2021/12/06 08:13:55;;;;;;;12.13;11.13;;;3.70;99.90;;;;;;5093237;28;20603;-64
2021/12/06 08:16:25;;;;;;;11.50;10.50;;;3.80;99.90;;;;;;5081323;28;20211;-61
2021/12/06 08:18:53;;;;;;;11.75;10.65;;;3.80;99.90;;;;;;5072313;28;20225;-64
2021/12/06 08:21:23;;;;;;;12.98;11.88;;;3.90;99.90;;;;;;5073000;28;20234;-61
2021/12/06 08:23:53;;;;;;;21.40;19.27;;;3.90;99.90;;;;;;5078418;28;20277;-62
2021/12/06 08:26:23;;;;;;;20.98;18.85;;;3.90;99.90;;;;;;5092761;28;20760;-62
2021/12/06 08:28:55;;;;;;;11.95;10.85;;;3.90;99.90;;;;;;5092325;28;20639;-62
2021/12/06 08:31:23;;;;;;;10.55;9.65;;;3.90;99.90;;;;;;5092719;28;20683;-63
2021/12/06 08:33:53;;;;;;;14.02;10.77;;;3.80;99.90;;;;;;5092883;28;20634;-62
2021/12/06 08:36:24;;;;;;;15.43;14.07;;;3.80;99.90;;;;;;5092871;28;20218;-62
2021/12/06 08:38:52;;;;;;;14.02;12.48;;;3.80;99.90;;;;;;5092203;28;20627;-63
2021/12/06 08:41:22;;;;;;;16.02;14.63;;;3.90;99.90;;;;;;5092602;28;20221;-63
2021/12/06 08:43:53;;;;;;;13.38;11.85;;;3.90;99.90;;;;;;5092617;28;20230;-63
2021/12/06 08:46:24;;;;;;;11.02;10.13;;;4.00;99.90;;;;;;5091526;28;20234;-63
2021/12/06 08:48:52;;;;;;;11.20;10.18;;;4.00;99.90;;;;;;5092006;28;20214;-63
2021/12/06 08:51:23;;;;;;;12.63;11.38;;;4.10;99.90;;;;;;5092408;28;20286;-62
2021/12/06 08:53:52;;;;;;;13.70;12.40;;;4.10;99.90;;;;;;5092347;28;20237;-62
2021/12/06 08:56:21;;;;;;;11.30;10.15;;;4.20;99.90;;;;;;5091760;28;20290;-62
2021/12/06 08:58:50;;;;;;;10.50;9.50;;;4.20;99.90;;;;;;5091700;28;20249;-63
2021/12/06 09:01:20;;;;;;;10.95;9.90;;;3.90;99.90;;;;;;5091726;28;20229;-62
2021/12/06 09:04:12;;;;;;;10.82;9.73;;;3.90;99.90;;;;;;5092225;28;20204;-62
2021/12/06 09:06:43;;;;;;;10.45;9.45;;;4.00;99.90;;;;;;5092023;28;20230;-63
2021/12/06 09:09:12;;;;;;;11.65;10.45;;;4.10;99.90;;;;;;5072776;28;20333;-62
2021/12/06 09:11:42;;;;;;;11.15;10.23;;;4.00;99.90;;;;;;5091999;28;20225;-62
2021/12/06 09:14:10;;;;;;;11.82;10.85;;;4.00;99.90;;;;;;5091386;28;20195;-63
2021/12/06 09:16:41;;;;;;;13.27;11.98;;;4.10;99.90;;;;;;5091719;28;20273;-62
2021/12/06 09:19:12;;;;;;;12.45;11.35;;;4.00;99.90;;;;;;5091790;28;20252;-62
2021/12/06 09:21:41;;;;;;;13.32;12.05;;;3.90;99.90;;;;;;5092005;28;20269;-62
2021/12/06 09:24:14;;;;;;;14.30;13.00;;;3.90;99.90;;;;;;5091718;28;20237;-63
2021/12/06 09:26:42;;;;;;;14.68;13.38;;;3.90;99.90;;;;;;5091769;28;20256;-62
2021/12/06 09:29:10;;;;;;;14.68;13.38;;;3.80;99.90;;;;;;5091065;28;20234;-62
2021/12/06 09:31:40;;;;;;;14.90;13.30;;;3.80;99.90;;;;;;5091946;28;20622;-62
2021/12/06 09:34:08;;;;;;;14.65;13.43;;;3.90;99.90;;;;;;5091727;28;20197;-62
2021/12/06 09:36:36;;;;;;;13.55;12.13;;;4.10;99.90;;;;;;5091918;28;20231;-63
2021/12/06 09:39:05;;;;;;;14.07;12.68;;;4.50;99.90;;;;;;5091457;28;20276;-62
2021/12/06 09:41:35;;;;;;;12.77;11.68;;;5.10;99.90;;;;;;5091468;28;20645;-62
2021/12/06 09:44:06;;;;;;;13.63;11.20;;;5.60;99.90;;;;;;5091062;28;20219;-62
2021/12/06 09:46:36;;;;;;;13.77;10.90;;;6.10;99.90;;;;;;5091422;28;20726;-63
2021/12/06 09:49:09;;;;;;;11.68;9.27;;;6.50;99.90;;;;;;5091263;28;20222;-63
2021/12/06 09:51:38;;;;;;;11.82;10.63;;;6.60;99.90;;;;;;5091594;28;20682;-63
2021/12/06 09:54:06;;;;;;;12.55;9.82;;;6.60;99.90;;;;;;5091021;28;20277;-62
2021/12/06 09:56:38;;;;;;;14.05;11.10;;;6.40;99.90;;;;;;5089337;28;20269;-62
2021/12/06 09:59:09;;;;;;;12.80;11.57;;;6.00;99.90;;;;;;5090977;28;20245;-62
2021/12/06 10:01:39;;;;;;;15.82;13.98;;;5.70;99.90;;;;;;5091430;28;20644;-62
2021/12/06 10:04:12;;;;;;;15.25;13.77;;;5.50;99.90;;;;;;5091118;28;20202;-63
2021/12/06 10:06:39;;;;;;;24.38;22.02;;;5.40;99.90;;;;;;5091089;28;20256;-63
2021/12/06 10:09:11;;;;;;;27.48;24.52;;;5.30;99.90;;;;;;5091087;28;20344;-62
2021/12/06 10:11:39;;;;;;;21.92;19.73;;;5.20;99.90;;;;;;5073983;28;20237;-62
2021/12/06 10:14:07;;;;;;;19.55;17.55;;;5.20;99.90;;;;;;5071078;28;20227;-62
2021/12/06 10:16:36;;;;;;;21.90;18.75;;;5.20;99.90;;;;;;5071122;28;20218;-61
2021/12/06 10:19:06;;;;;;;19.63;17.60;;;5.20;99.90;;;;;;5070770;28;20223;-62
2021/12/06 10:21:38;;;;;;;20.05;17.80;;;5.10;99.90;;;;;;5086364;28;20277;-62
2021/12/06 10:24:10;;;;;;;19.98;17.90;;;5.20;99.90;;;;;;5091217;28;20274;-62
2021/12/06 10:26:38;;;;;;;22.08;19.65;;;5.20;99.90;;;;;;5091188;28;20698;-62
2021/12/06 10:29:09;;;;;;;23.63;21.08;;;5.30;99.90;;;;;;5094141;28;20250;-62
2021/12/06 10:31:40;;;;;;;20.20;18.35;;;5.30;99.90;;;;;;5094990;28;20694;-62
2021/12/06 10:34:14;;;;;;;19.17;17.33;;;5.40;99.90;;;;;;5095025;28;20268;-62
2021/12/06 10:36:43;;;;;;;17.73;16.02;;;5.50;99.90;;;;;;5094620;28;20230;-61
2021/12/06 10:39:11;;;;;;;17.67;15.98;;;5.60;99.90;;;;;;5094819;28;20317;-61
2021/12/06 10:41:41;;;;;;;16.67;15.02;;;5.60;99.90;;;;;;5094526;28;20706;-61
2021/12/06 10:44:12;;;;;;;17.38;15.57;;;5.70;99.90;;;;;;5094664;28;20187;-62
2021/12/06 10:46:42;;;;;;;16.25;14.70;;;5.80;99.90;;;;;;5094490;28;20219;-62
2021/12/06 10:49:14;;;;;;;15.18;13.77;;;5.90;99.90;;;;;;5094603;28;20245;-62
2021/12/06 10:51:44;;;;;;;15.30;14.00;;;5.90;99.90;;;;;;5094136;28;20230;-62
2021/12/06 10:54:19;;;;;;;15.98;14.10;;;5.90;99.90;;;;;;5094230;28;20663;-62
2021/12/06 10:56:52;;;;;;;15.95;14.35;;;6.00;99.90;;;;;;5094788;28;20248;-62
2021/12/06 10:59:22;;;;;;;16.35;14.70;;;6.10;99.90;;;;;;5094080;28;20659;-62
2021/12/06 11:01:54;;;;;;;19.05;17.13;;;6.70;99.90;;;;;;5094350;28;20298;-62
2021/12/06 11:04:27;;;;;;;16.98;15.38;;;7.50;99.90;;;;;;5094076;28;20198;-62
2021/12/06 11:07:05;;;;;;;16.02;14.40;;;7.90;99.90;;;;;;5073705;28;20246;-62
2021/12/06 11:09:35;;;;;;;15.82;14.27;;;8.20;99.90;;;;;;5073546;28;20322;-61
2021/12/06 11:12:06;;;;;;;16.73;15.13;;;8.10;99.90;;;;;;5074159;28;20203;-61
2021/12/06 11:14:38;;;;;;;18.48;15.90;;;8.20;99.90;;;;;;5073535;28;20675;-62
2021/12/06 11:17:09;;;;;;;16.48;14.80;;;8.30;99.90;;;;;;5073870;28;20217;-62
2021/12/06 11:19:37;;;;;;;17.42;15.75;;;8.20;99.90;;;;;;5073732;28;20247;-62
2021/12/06 11:22:08;;;;;;;17.48;15.55;;;8.20;99.90;;;;;;5073702;28;20209;-63
2021/12/06 11:24:39;;;;;;;15.73;14.30;;;8.20;99.90;;;;;;5073820;28;20329;-62
2021/12/06 11:27:10;;;;;;;17.27;15.55;;;8.30;99.90;;;;;;5092666;28;20202;-63
2021/12/06 11:29:40;;;;;;;15.57;14.00;;;8.30;99.90;;;;;;5093312;28;20234;-63
2021/12/06 11:32:10;;;;;;;15.68;13.63;;;8.40;99.90;;;;;;5093878;28;20226;-62
2021/12/06 11:34:43;;;;;;;15.95;14.45;;;8.70;99.90;;;;;;5093509;28;20191;-63
2021/12/06 11:37:16;;;;;;;16.05;14.55;;;9.00;99.90;;;;;;5093640;28;20218;-63
2021/12/06 11:39:47;;;;;;;18.35;16.35;;;8.80;99.90;;;;;;5092439;28;20325;-63
2021/12/06 11:42:15;;;;;;;18.77;16.77;;;8.40;99.90;;;;;;5093508;28;20186;-62
2021/12/06 11:44:43;;;;;;;20.50;18.10;;;8.00;99.90;;;;;;5093319;28;20452;-63
2021/12/06 11:47:14;;;;;;;19.23;17.42;;;7.50;99.90;;;;;;5093717;28;20218;-63
2021/12/06 11:49:44;;;;;;;19.83;17.83;;;7.20;99.90;;;;;;5093730;28;20268;-63
2021/12/06 11:52:17;;;;;;;19.75;18.02;;;6.60;99.90;;;;;;5094102;28;20667;-62
2021/12/06 11:54:49;;;;;;;21.88;18.15;;;6.20;99.90;;;;;;5093977;28;20201;-62
2021/12/06 11:57:27;;;;;;;23.92;21.40;;;5.80;99.90;;;;;;5094375;28;20222;-63
2021/12/06 12:00:08;;;;;;;23.70;21.50;;;5.60;99.90;;;;;;5086827;28;20230;-62
2021/12/06 12:02:44;;;;;;;24.48;22.13;;;5.70;99.90;;;;;;5093789;28;20195;-62
2021/12/06 12:05:23;;;;;;;24.08;21.27;;;5.70;99.90;;;;;;5093384;28;20190;-62
2021/12/06 12:08:00;;;;;;;22.73;20.65;;;5.70;99.90;;;;;;5093065;28;20214;-62
2021/12/06 12:10:30;;;;;;;21.85;19.65;;;5.90;99.90;;;;;;5092572;28;20749;-62
2021/12/06 12:12:58;;;;;;;21.50;19.40;;;6.00;99.90;;;;;;5093207;28;20222;-62
2021/12/06 12:15:26;;;;;;;21.65;19.45;;;6.10;99.90;;;;;;5092554;28;20224;-62
2021/12/06 12:17:54;;;;;;;21.77;19.70;;;6.10;99.90;;;;;;5093189;28;20183;-62
2021/12/06 12:20:42;;;;;;;22.95;20.55;;;6.00;99.90;;;;;;5092808;28;20213;-62
2021/12/06 12:23:11;;;;;;;18.75;16.95;;;6.00;99.90;;;;;;5093055;28;20226;-62
2021/12/06 12:25:47;;;;;;;18.67;16.73;;;6.10;99.90;;;;;;5093191;28;20226;-62
2021/12/06 12:28:20;;;;;;;17.65;15.95;;;6.20;99.90;;;;;;5092579;28;20253;-61
2021/12/06 12:30:50;;;;;;;16.38;14.65;;;6.40;99.90;;;;;;5072650;28;20614;-62
2021/12/06 12:33:19;;;;;;;15.35;13.85;;;6.60;99.90;;;;;;5072812;28;20195;-62
2021/12/06 12:35:49;;;;;;;15.82;14.27;;;6.80;99.90;;;;;;5079084;28;20232;-62
2021/12/06 12:38:23;;;;;;;15.80;14.30;;;6.80;99.90;;;;;;5091877;28;20282;-62
2021/12/06 12:40:54;;;;;;;16.48;14.40;;;6.80;99.90;;;;;;5092593;28;20222;-62
2021/12/06 12:43:25;;;;;;;16.10;14.35;;;6.70;99.90;;;;;;5092563;28;20667;-61
2021/12/06 12:45:56;;;;;;;16.42;14.73;;;6.60;99.90;;;;;;5092532;28;20222;-61
2021/12/06 12:48:26;;;;;;;15.52;14.00;;;6.60;99.90;;;;;;5092151;28;20234;-61
2021/12/06 12:51:04;;;;;;;15.23;13.73;;;6.30;99.90;;;;;;5091674;28;20198;-61
2021/12/06 12:53:48;;;;;;;16.83;15.02;;;6.30;99.90;;;;;;5092545;28;20244;-63
2021/12/06 12:56:19;;;;;;;17.67;15.88;;;6.20;99.90;;;;;;5092473;28;20213;-63
2021/12/06 12:58:48;;;;;;;17.73;15.20;;;6.10;99.90;;;;;;5084404;28;20248;-62
2021/12/06 13:01:19;;;;;;;16.65;15.00;;;5.90;99.90;;;;;;5092518;28;20282;-63
2021/12/06 13:03:53;;;;;;;15.57;13.60;;;5.80;99.90;;;;;;5092660;28;20190;-62
2021/12/06 13:06:25;;;;;;;16.80;15.02;;;5.70;99.90;;;;;;5092737;28;20218;-63
2021/12/06 13:08:56;;;;;;;16.73;15.02;;;5.70;99.90;;;;;;5091960;28;20238;-63